Terminal Aerodrome Forecast
Issued by NWS

Home | Current Version | Previous Version | Text Only | Print | Product List | Glossary On
Versions: 1 2 3 4 5 6 7 8 9 10 11 12 13 14
000
FTUS46 KMTR 271100
TAFMRY
TAF
KMRY 271120Z 2712/2812 08007KT P6SM FEW250
     FM271800 VRB03KT P6SM SKC
     FM272100 27004KT P6SM SKC
     FM280200 10003KT P6SM BKN250=

USA.gov is the U.S. government's official web portal to all federal, state and local government web resources and services.